Time;durP1;ratioP1;P1;durP2;ratioP2;P2;SDS_P1;SDS_P2;PMS_P1;PMS_P2;Temp;Humidity;BMP_temperature;BMP_pressure;BME280_temperature;BME280_humidity;BME280_pressure;Samples;Min_cycle;Max_cycle;Signal;HPM_P1;HPM_P2
2021/11/22 00:02:19;;;;;;;33.00;18.33;;;3.10;99.90;;;;;;5009692;28;20030;-56
2021/11/22 00:04:45;;;;;;;38.22;17.92;;;3.10;99.90;;;;;;5014419;28;20487;-56
2021/11/22 00:07:12;;;;;;;36.80;18.55;;;3.10;99.90;;;;;;4997278;28;20083;-56
2021/11/22 00:09:38;;;;;;;36.17;18.92;;;3.10;99.90;;;;;;5004348;28;20250;-57
2021/11/22 00:12:04;;;;;;;31.90;16.17;;;3.00;99.90;;;;;;5009730;28;20466;-56
2021/11/22 00:14:29;;;;;;;35.88;17.27;;;3.00;99.90;;;;;;5002919;28;20042;-59
2021/11/22 00:16:55;;;;;;;36.78;17.23;;;2.90;99.90;;;;;;5010273;28;20070;-58
2021/11/22 00:19:21;;;;;;;38.15;17.10;;;2.80;99.90;;;;;;5013777;28;20057;-59
2021/11/22 00:21:46;;;;;;;39.33;18.50;;;2.80;99.90;;;;;;5014248;28;20029;-58
2021/11/22 00:24:12;;;;;;;38.15;17.33;;;2.80;99.90;;;;;;5005631;28;20018;-58
2021/11/22 00:26:38;;;;;;;48.22;19.20;;;2.80;99.90;;;;;;5014043;28;20801;-58
2021/11/22 00:29:03;;;;;;;32.25;18.05;;;2.70;99.90;;;;;;5009486;28;20116;-60
2021/11/22 00:31:29;;;;;;;34.42;17.02;;;2.80;99.90;;;;;;5002522;28;20116;-56
2021/11/22 00:33:56;;;;;;;35.45;15.68;;;2.90;99.90;;;;;;5002063;28;20060;-57
2021/11/22 00:36:22;;;;;;;41.25;17.67;;;2.80;99.90;;;;;;4998411;28;20093;-57
2021/11/22 00:38:47;;;;;;;39.53;18.85;;;2.80;99.90;;;;;;5009818;28;20029;-58
2021/11/22 00:41:13;;;;;;;53.90;19.83;;;2.80;99.90;;;;;;5019155;28;20029;-57
2021/11/22 00:43:39;;;;;;;47.15;19.60;;;2.90;99.90;;;;;;5008709;28;20022;-58
2021/11/22 00:46:05;;;;;;;38.50;19.38;;;2.90;99.90;;;;;;5004264;28;20091;-59
2021/11/22 00:48:31;;;;;;;41.67;20.10;;;3.00;99.90;;;;;;5000492;28;20084;-59
2021/11/22 00:50:57;;;;;;;62.28;23.63;;;3.10;99.90;;;;;;5002766;28;20029;-59
2021/11/22 00:53:23;;;;;;;47.72;20.67;;;3.20;99.90;;;;;;5004734;28;20030;-55
2021/11/22 00:55:48;;;;;;;46.38;20.83;;;3.20;99.90;;;;;;5008799;28;20550;-54
2021/11/22 00:58:14;;;;;;;51.42;21.38;;;3.20;99.90;;;;;;5020576;28;20025;-58
2021/11/22 01:00:40;;;;;;;45.65;19.35;;;3.30;99.90;;;;;;4999410;28;20048;-59
2021/11/22 01:03:06;;;;;;;51.30;20.55;;;3.30;99.90;;;;;;5016903;28;20030;-56
2021/11/22 01:05:32;;;;;;;42.50;18.00;;;3.30;99.90;;;;;;5007241;28;20640;-53
2021/11/22 01:07:58;;;;;;;44.70;19.67;;;3.40;99.90;;;;;;4981709;28;20133;-52
2021/11/22 01:10:24;;;;;;;40.63;19.08;;;3.40;99.90;;;;;;5001857;28;20392;-55
2021/11/22 01:12:50;;;;;;;43.47;18.73;;;3.50;99.90;;;;;;5002268;28;20026;-56
2021/11/22 01:15:22;;;;;;;37.33;17.95;;;3.50;99.90;;;;;;5002834;28;20036;-59
2021/11/22 01:17:49;;;;;;;49.97;18.95;;;3.50;99.90;;;;;;4993305;28;20030;-55
2021/11/22 01:20:17;;;;;;;36.95;19.23;;;3.50;99.90;;;;;;4995373;28;20493;-58
2021/11/22 01:22:43;;;;;;;36.88;17.30;;;3.50;99.90;;;;;;4979873;28;20025;-57
2021/11/22 01:25:11;;;;;;;45.05;19.42;;;3.50;99.90;;;;;;5002279;28;20029;-59
2021/11/22 01:27:37;;;;;;;42.55;19.17;;;3.50;99.90;;;;;;5006743;28;20101;-55
2021/11/22 01:30:08;;;;;;;39.30;18.45;;;3.50;99.90;;;;;;4998432;28;20043;-56
2021/11/22 01:32:34;;;;;;;38.25;18.70;;;3.50;99.90;;;;;;5004976;28;20030;-57
2021/11/22 01:34:59;;;;;;;36.55;18.35;;;3.50;99.90;;;;;;4999916;28;20036;-57
2021/11/22 01:37:25;;;;;;;36.58;17.75;;;3.50;99.90;;;;;;5009845;28;20667;-58
2021/11/22 01:39:51;;;;;;;39.88;17.58;;;3.50;99.90;;;;;;4999327;28;20383;-58
2021/11/22 01:42:16;;;;;;;41.53;17.55;;;3.50;99.90;;;;;;5004442;28;20456;-56
2021/11/22 01:44:42;;;;;;;36.85;17.25;;;3.60;99.90;;;;;;5008688;28;20029;-57
2021/11/22 01:47:07;;;;;;;33.83;15.52;;;3.60;99.90;;;;;;5006442;28;20440;-57
2021/11/22 01:49:33;;;;;;;38.13;16.00;;;3.70;99.90;;;;;;5001378;28;20117;-56
2021/11/22 01:51:59;;;;;;;32.20;14.98;;;3.90;99.90;;;;;;4993736;28;20458;-57
2021/11/22 01:54:24;;;;;;;32.80;14.75;;;3.90;99.90;;;;;;4995136;28;20022;-57
2021/11/22 01:56:50;;;;;;;27.05;13.88;;;4.00;99.90;;;;;;4992419;28;20034;-56
2021/11/22 01:59:17;;;;;;;31.05;13.82;;;4.10;99.90;;;;;;5003259;28;20104;-58
2021/11/22 02:01:44;;;;;;;29.10;12.50;;;4.20;99.90;;;;;;4999574;28;20039;-55
2021/11/22 02:04:11;;;;;;;27.15;12.85;;;4.20;99.90;;;;;;5000689;28;20022;-56
2021/11/22 02:06:37;;;;;;;24.02;13.73;;;4.30;99.90;;;;;;4995172;28;20038;-56
2021/11/22 02:09:03;;;;;;;25.02;13.57;;;4.30;99.90;;;;;;5014988;28;20034;-55
2021/11/22 02:11:29;;;;;;;28.70;13.95;;;4.30;99.90;;;;;;5010388;28;20026;-53
2021/11/22 02:13:55;;;;;;;28.02;14.00;;;4.40;99.90;;;;;;4997020;28;20050;-58
2021/11/22 02:16:21;;;;;;;24.50;12.60;;;4.40;99.90;;;;;;4997500;28;20065;-57
2021/11/22 02:18:47;;;;;;;30.40;14.02;;;4.40;99.90;;;;;;5003333;28;20057;-57
2021/11/22 02:21:14;;;;;;;32.30;13.63;;;4.50;99.90;;;;;;4998239;28;20470;-57
2021/11/22 02:23:40;;;;;;;28.40;14.05;;;4.50;99.90;;;;;;4996026;28;20045;-57
2021/11/22 02:26:06;;;;;;;28.77;14.20;;;4.50;99.90;;;;;;4996044;28;20048;-54
2021/11/22 02:28:32;;;;;;;41.97;14.02;;;4.60;99.90;;;;;;5000994;28;20542;-57
2021/11/22 02:30:57;;;;;;;25.30;13.93;;;4.60;99.90;;;;;;4999015;28;20029;-57
2021/11/22 02:33:26;;;;;;;28.70;14.13;;;4.60;99.90;;;;;;5016028;28;20402;-57
2021/11/22 02:35:57;;;;;;;25.17;14.10;;;4.60;99.90;;;;;;5008076;28;20512;-54
2021/11/22 02:38:26;;;;;;;32.55;15.57;;;4.50;99.90;;;;;;5023030;28;20105;-55
2021/11/22 02:40:53;;;;;;;27.45;14.75;;;4.40;99.90;;;;;;5012954;28;20474;-59
2021/11/22 02:43:18;;;;;;;30.52;15.27;;;4.40;99.90;;;;;;5003480;28;20022;-58
2021/11/22 02:45:44;;;;;;;34.45;14.80;;;4.50;99.90;;;;;;5010338;28;20518;-56
2021/11/22 02:48:10;;;;;;;32.55;17.23;;;4.50;99.90;;;;;;5014712;28;20112;-56
2021/11/22 02:50:35;;;;;;;26.70;15.25;;;4.50;99.90;;;;;;5019585;28;20068;-57
2021/11/22 02:53:01;;;;;;;33.22;15.48;;;4.50;99.90;;;;;;5019551;28;20029;-57
2021/11/22 02:55:27;;;;;;;32.42;16.45;;;4.40;99.90;;;;;;5017566;28;20030;-56
2021/11/22 02:57:53;;;;;;;28.83;14.82;;;4.30;99.90;;;;;;5016295;28;20045;-56
2021/11/22 03:00:22;;;;;;;26.92;13.27;;;4.20;99.90;;;;;;5002918;28;20030;-59
2021/11/22 03:02:48;;;;;;;32.97;15.32;;;4.10;99.90;;;;;;5024165;28;20021;-56
2021/11/22 03:05:14;;;;;;;31.60;15.05;;;4.10;99.90;;;;;;5005836;28;20113;-58
2021/11/22 03:07:40;;;;;;;30.98;16.10;;;4.00;99.90;;;;;;5003912;28;20042;-58
2021/11/22 03:10:08;;;;;;;32.05;16.95;;;4.10;99.90;;;;;;5019996;28;20087;-57
2021/11/22 03:12:34;;;;;;;26.77;17.42;;;4.00;99.90;;;;;;5024620;28;20093;-56
2021/11/22 03:15:04;;;;;;;32.78;17.60;;;4.10;99.90;;;;;;5011886;28;20081;-57
2021/11/22 03:17:29;;;;;;;35.22;16.73;;;4.20;99.90;;;;;;5025678;28;20034;-56
2021/11/22 03:19:55;;;;;;;36.55;18.27;;;4.20;99.90;;;;;;5018036;28;20036;-57
2021/11/22 03:22:21;;;;;;;32.60;17.10;;;4.20;99.90;;;;;;5011069;28;20018;-58
2021/11/22 03:24:46;;;;;;;38.00;18.60;;;4.30;99.90;;;;;;5016073;28;20372;-57
2021/11/22 03:27:12;;;;;;;34.33;18.88;;;4.30;99.90;;;;;;5018144;28;20026;-58
2021/11/22 03:29:38;;;;;;;31.38;18.60;;;4.30;99.90;;;;;;5013297;28;20427;-56
2021/11/22 03:32:03;;;;;;;40.20;18.17;;;4.40;99.90;;;;;;5002508;28;20037;-57
2021/11/22 03:34:29;;;;;;;40.30;18.50;;;4.40;99.90;;;;;;5018188;28;20025;-57
2021/11/22 03:37:01;;;;;;;33.97;17.48;;;4.40;99.90;;;;;;5005353;28;20084;-57
2021/11/22 03:39:27;;;;;;;32.42;18.35;;;4.50;99.90;;;;;;4997120;28;20023;-57
2021/11/22 03:41:55;;;;;;;31.85;17.02;;;4.60;99.90;;;;;;5016307;28;20027;-56
2021/11/22 03:44:21;;;;;;;31.92;17.52;;;4.60;99.90;;;;;;4998214;28;20511;-58
2021/11/22 03:46:50;;;;;;;31.20;17.70;;;4.60;99.90;;;;;;5014833;28;20034;-58
2021/11/22 03:49:16;;;;;;;32.17;17.52;;;4.60;99.90;;;;;;5005270;28;20060;-59
2021/11/22 03:51:42;;;;;;;30.25;16.42;;;4.70;99.90;;;;;;5012851;28;20294;-54
2021/11/22 03:54:10;;;;;;;30.05;16.38;;;4.70;99.90;;;;;;5006294;28;20114;-58
2021/11/22 03:56:37;;;;;;;33.00;16.10;;;4.70;99.90;;;;;;5002237;28;20026;-58
2021/11/22 03:59:03;;;;;;;24.83;15.52;;;4.80;99.90;;;;;;5000613;28;20111;-57
2021/11/22 04:01:28;;;;;;;25.85;16.83;;;4.80;99.90;;;;;;4999647;28;20515;-59
2021/11/22 04:03:55;;;;;;;27.67;15.52;;;4.80;99.90;;;;;;5020088;28;20026;-59
2021/11/22 04:06:21;;;;;;;35.83;15.25;;;4.80;99.90;;;;;;5005265;28;20035;-56
2021/11/22 04:08:46;;;;;;;22.10;14.07;;;4.80;99.90;;;;;;5005254;28;20049;-57
2021/11/22 04:11:12;;;;;;;29.50;15.25;;;4.80;99.90;;;;;;4999896;28;20391;-58
2021/11/22 04:13:38;;;;;;;28.55;15.63;;;4.80;99.90;;;;;;5005739;28;20514;-59
2021/11/22 04:16:04;;;;;;;30.67;15.93;;;4.80;99.90;;;;;;5006816;28;20052;-59
2021/11/22 04:18:31;;;;;;;27.42;16.25;;;4.80;99.90;;;;;;5000987;28;20037;-58
2021/11/22 04:20:57;;;;;;;32.13;18.33;;;4.80;99.90;;;;;;5017138;28;20041;-56
2021/11/22 04:23:23;;;;;;;36.35;17.50;;;4.80;99.90;;;;;;5015586;28;20026;-59
2021/11/22 04:25:48;;;;;;;32.20;17.55;;;4.80;99.90;;;;;;5020592;28;20144;-60
2021/11/22 04:28:14;;;;;;;36.75;17.00;;;4.80;99.90;;;;;;5016333;28;20026;-61
2021/11/22 04:30:40;;;;;;;32.70;17.58;;;4.80;99.90;;;;;;5009516;28;20056;-58
2021/11/22 04:33:07;;;;;;;28.75;17.27;;;4.80;99.90;;;;;;5005763;28;20106;-57
2021/11/22 04:35:33;;;;;;;27.92;16.30;;;4.80;99.90;;;;;;5008867;28;20728;-57
2021/11/22 04:37:58;;;;;;;26.17;16.75;;;4.90;99.90;;;;;;5021510;28;20097;-58
2021/11/22 04:40:24;;;;;;;30.80;17.02;;;4.80;99.90;;;;;;5009625;28;20037;-56
2021/11/22 04:42:50;;;;;;;33.08;18.30;;;4.90;99.90;;;;;;5011499;28;20038;-58
2021/11/22 04:45:18;;;;;;;28.40;16.52;;;4.90;99.90;;;;;;5008071;28;20051;-58
2021/11/22 04:47:44;;;;;;;28.83;17.15;;;4.90;99.90;;;;;;5009005;28;20105;-58
2021/11/22 04:50:10;;;;;;;32.38;16.60;;;4.90;99.90;;;;;;5015114;28;20029;-58
2021/11/22 04:52:36;;;;;;;29.80;16.70;;;4.90;99.90;;;;;;5014241;28;20084;-57
2021/11/22 04:55:03;;;;;;;28.20;16.73;;;4.90;99.90;;;;;;5012830;28;20038;-56
2021/11/22 04:57:29;;;;;;;28.83;17.20;;;4.90;99.90;;;;;;5006659;28;20076;-58
2021/11/22 04:59:55;;;;;;;28.83;16.60;;;4.90;99.90;;;;;;5009669;28;20030;-55
2021/11/22 05:02:21;;;;;;;27.00;17.23;;;4.90;99.90;;;;;;5004396;28;20034;-54
2021/11/22 05:04:47;;;;;;;23.67;15.38;;;4.90;99.90;;;;;;5003727;28;20074;-54
2021/11/22 05:07:12;;;;;;;26.00;15.77;;;5.00;99.90;;;;;;5002824;28;21511;-56
2021/11/22 05:09:38;;;;;;;29.67;17.08;;;5.00;99.90;;;;;;5019241;28;20045;-55
2021/11/22 05:12:04;;;;;;;27.83;16.83;;;5.00;99.90;;;;;;5019436;28;20407;-59
2021/11/22 05:14:30;;;;;;;26.88;15.25;;;5.00;99.90;;;;;;5015050;28;20065;-57
2021/11/22 05:16:56;;;;;;;24.73;15.80;;;5.00;99.90;;;;;;5014053;28;20060;-57
2021/11/22 05:19:22;;;;;;;25.73;15.45;;;5.00;99.90;;;;;;5001383;28;20038;-55
2021/11/22 05:21:48;;;;;;;39.17;21.48;;;5.00;99.90;;;;;;5001339;28;20662;-59
2021/11/22 05:24:13;;;;;;;23.88;15.18;;;5.00;99.90;;;;;;4994112;28;20121;-57
2021/11/22 05:26:39;;;;;;;27.05;16.80;;;5.00;99.90;;;;;;5007019;28;20450;-57
2021/11/22 05:29:08;;;;;;;20.40;14.07;;;5.00;99.90;;;;;;5002026;28;20142;-57
2021/11/22 05:31:34;;;;;;;19.80;13.00;;;5.10;99.90;;;;;;5002289;28;20033;-58
2021/11/22 05:34:01;;;;;;;22.77;14.77;;;5.00;99.90;;;;;;5001059;28;20037;-56
2021/11/22 05:36:27;;;;;;;23.25;15.30;;;5.00;99.90;;;;;;5001582;28;20065;-58
2021/11/22 05:38:53;;;;;;;24.90;15.05;;;5.00;99.90;;;;;;5000515;28;20125;-57
2021/11/22 05:41:19;;;;;;;18.77;13.02;;;5.00;99.90;;;;;;4998112;28;20052;-57
2021/11/22 05:43:44;;;;;;;18.05;12.32;;;5.10;99.90;;;;;;5001504;28;20112;-58
2021/11/22 05:46:10;;;;;;;17.80;11.73;;;5.10;99.90;;;;;;5003741;28;20033;-57
2021/11/22 05:48:37;;;;;;;18.25;12.52;;;5.10;99.90;;;;;;5008379;28;20087;-57
2021/11/22 05:51:05;;;;;;;20.23;12.40;;;5.10;99.90;;;;;;5007093;28;20113;-55
2021/11/22 05:53:34;;;;;;;19.67;11.88;;;5.10;99.90;;;;;;5011477;28;20050;-59
2021/11/22 05:56:03;;;;;;;17.77;12.50;;;5.10;99.90;;;;;;5006801;28;20085;-57
2021/11/22 05:58:31;;;;;;;17.25;10.95;;;5.10;99.90;;;;;;5010919;28;20026;-60
2021/11/22 06:01:00;;;;;;;17.77;10.38;;;5.10;99.90;;;;;;5005561;28;20033;-58
2021/11/22 06:03:27;;;;;;;16.83;9.70;;;5.10;99.90;;;;;;5004119;28;20065;-57
2021/11/22 06:05:53;;;;;;;14.88;9.00;;;5.20;99.90;;;;;;5005799;28;20105;-57
2021/11/22 06:08:19;;;;;;;12.25;8.85;;;5.20;99.90;;;;;;4985228;28;20046;-57
2021/11/22 06:10:46;;;;;;;11.60;8.35;;;5.20;99.90;;;;;;5003917;28;20030;-56
2021/11/22 06:13:12;;;;;;;15.27;9.63;;;5.20;99.90;;;;;;5007801;28;20030;-55
2021/11/22 06:15:42;;;;;;;13.55;9.70;;;5.20;99.90;;;;;;5009807;28;20112;-54
2021/11/22 06:18:09;;;;;;;16.30;8.55;;;5.20;99.90;;;;;;5005353;28;20082;-56
2021/11/22 06:20:36;;;;;;;16.17;9.38;;;5.20;99.90;;;;;;5006391;28;20100;-57
2021/11/22 06:23:02;;;;;;;13.43;8.63;;;5.20;99.90;;;;;;4986566;28;20057;-57
2021/11/22 06:25:28;;;;;;;12.55;8.98;;;5.10;99.90;;;;;;5004854;28;20471;-56
2021/11/22 06:27:53;;;;;;;13.18;9.55;;;5.20;99.90;;;;;;5013790;28;20061;-58
2021/11/22 06:30:20;;;;;;;14.88;9.80;;;5.20;99.90;;;;;;4996856;28;20041;-54
2021/11/22 06:32:47;;;;;;;15.18;9.77;;;5.20;99.90;;;;;;4999167;28;20038;-55
2021/11/22 06:35:12;;;;;;;14.57;9.80;;;5.10;99.90;;;;;;4998983;28;20434;-54
2021/11/22 06:37:38;;;;;;;19.05;9.85;;;5.10;99.90;;;;;;4997850;28;20030;-59
2021/11/22 06:40:06;;;;;;;14.80;10.52;;;5.10;99.90;;;;;;5002558;28;20076;-58
2021/11/22 06:42:32;;;;;;;17.27;10.43;;;5.00;99.90;;;;;;5005449;28;20034;-58
2021/11/22 06:44:58;;;;;;;14.35;9.93;;;5.00;99.90;;;;;;5001563;28;20411;-59
2021/11/22 06:47:25;;;;;;;16.88;9.02;;;5.00;99.90;;;;;;5002228;28;20476;-60
2021/11/22 06:49:51;;;;;;;16.55;11.13;;;5.00;99.90;;;;;;5005224;28;20033;-57
2021/11/22 06:52:18;;;;;;;17.02;10.43;;;5.00;99.90;;;;;;5004109;28;20113;-58
2021/11/22 06:54:44;;;;;;;16.95;10.07;;;5.00;99.90;;;;;;4996577;28;20030;-58
2021/11/22 06:57:10;;;;;;;18.27;11.43;;;5.10;99.90;;;;;;5011551;28;20033;-56
2021/11/22 06:59:37;;;;;;;14.48;10.05;;;5.00;99.90;;;;;;5005573;28;20064;-59
2021/11/22 07:02:03;;;;;;;21.20;10.77;;;5.00;99.90;;;;;;5001767;28;20120;-61
2021/11/22 07:04:29;;;;;;;15.85;10.55;;;5.00;99.90;;;;;;5000995;28;20026;-58
2021/11/22 07:06:55;;;;;;;17.83;11.93;;;5.00;99.90;;;;;;4993052;28;20036;-56
2021/11/22 07:09:22;;;;;;;18.00;11.23;;;5.00;99.90;;;;;;5005458;28;20057;-60
2021/11/22 07:11:47;;;;;;;17.10;11.48;;;4.90;99.90;;;;;;5004950;28;20403;-58
2021/11/22 07:14:13;;;;;;;19.48;11.02;;;4.80;99.90;;;;;;4998504;28;20030;-59
2021/11/22 07:16:39;;;;;;;19.98;12.55;;;4.80;99.90;;;;;;5002417;28;20095;-57
2021/11/22 07:19:04;;;;;;;25.42;14.18;;;4.80;99.90;;;;;;4999004;28;20034;-56
2021/11/22 07:21:30;;;;;;;27.15;15.45;;;4.80;99.90;;;;;;5005813;28;20071;-55
2021/11/22 07:23:57;;;;;;;26.90;16.38;;;4.80;99.90;;;;;;5005885;28;20039;-57
2021/11/22 07:26:23;;;;;;;23.25;13.32;;;4.70;99.90;;;;;;5017149;28;20402;-55
2021/11/22 07:28:49;;;;;;;17.00;11.40;;;4.70;99.90;;;;;;5002729;28;20033;-58
2021/11/22 07:31:14;;;;;;;15.93;10.82;;;4.70;99.90;;;;;;4997408;28;20041;-56
2021/11/22 07:33:40;;;;;;;17.58;12.65;;;4.60;99.90;;;;;;4996381;28;20030;-59
2021/11/22 07:36:05;;;;;;;18.48;11.85;;;4.70;99.90;;;;;;4996674;28;20114;-54
2021/11/22 07:38:31;;;;;;;16.40;11.77;;;4.60;99.90;;;;;;4997943;28;20026;-57
2021/11/22 07:40:57;;;;;;;16.77;11.48;;;4.50;99.90;;;;;;4996790;28;20447;-58
2021/11/22 07:43:23;;;;;;;17.58;11.68;;;4.40;99.90;;;;;;5006327;28;20030;-58
2021/11/22 07:45:48;;;;;;;21.73;12.35;;;4.40;99.90;;;;;;5004742;28;20034;-56
2021/11/22 07:48:14;;;;;;;17.10;11.25;;;4.40;99.90;;;;;;5014354;28;20451;-56
2021/11/22 07:50:41;;;;;;;16.65;11.20;;;4.40;99.90;;;;;;5010307;28;20030;-57
2021/11/22 07:53:06;;;;;;;19.33;12.00;;;4.40;99.90;;;;;;5000014;28;20036;-55
2021/11/22 07:55:32;;;;;;;19.13;12.55;;;4.40;99.90;;;;;;5008653;28;20034;-57
2021/11/22 07:57:58;;;;;;;18.23;12.82;;;4.40;99.90;;;;;;5004400;28;20042;-58
2021/11/22 08:00:25;;;;;;;17.65;11.85;;;4.40;99.90;;;;;;5001880;28;20457;-56
2021/11/22 08:02:51;;;;;;;21.38;12.07;;;4.50;99.90;;;;;;5003751;28;20122;-56
2021/11/22 08:05:17;;;;;;;16.33;11.70;;;4.60;99.90;;;;;;5005839;28;20121;-54
2021/11/22 08:07:43;;;;;;;22.15;11.73;;;4.60;99.90;;;;;;4987148;28;20048;-58
2021/11/22 08:10:28;;;;;;;23.33;14.18;;;4.60;99.90;;;;;;5008653;28;20034;-57
2021/11/22 08:13:00;;;;;;;21.90;12.40;;;4.60;99.90;;;;;;4999832;28;20112;-60
2021/11/22 08:15:27;;;;;;;20.42;12.63;;;4.60;99.90;;;;;;4999035;28;20412;-57
2021/11/22 08:17:53;;;;;;;19.65;12.88;;;4.60;99.90;;;;;;4999420;28;20416;-58
2021/11/22 08:20:21;;;;;;;17.70;11.48;;;4.70;99.90;;;;;;4995445;28;20031;-57
2021/11/22 08:22:48;;;;;;;16.98;12.38;;;4.80;99.90;;;;;;5002166;28;20026;-60
2021/11/22 08:25:15;;;;;;;16.15;11.43;;;5.00;99.90;;;;;;5005587;28;20046;-53
2021/11/22 08:27:41;;;;;;;15.38;11.80;;;5.20;99.90;;;;;;5016340;28;20033;-59
2021/11/22 08:30:16;;;;;;;20.98;11.82;;;5.20;99.90;;;;;;5011882;28;20060;-55
2021/11/22 08:32:43;;;;;;;14.43;9.90;;;5.30;99.90;;;;;;4996083;28;20030;-57
2021/11/22 08:35:09;;;;;;;14.75;10.27;;;5.40;99.90;;;;;;4998157;28;20041;-58
2021/11/22 08:37:36;;;;;;;12.63;10.23;;;5.40;99.90;;;;;;4992877;28;20138;-57
2021/11/22 08:40:04;;;;;;;11.00;8.80;;;5.40;99.90;;;;;;4996635;28;20038;-59
2021/11/22 08:42:30;;;;;;;14.73;9.82;;;5.30;99.90;;;;;;5002763;28;20025;-60
2021/11/22 08:44:56;;;;;;;15.48;8.50;;;5.30;99.90;;;;;;5000162;28;20052;-58
2021/11/22 08:47:22;;;;;;;11.95;8.95;;;5.30;99.90;;;;;;5002813;28;20026;-56
2021/11/22 08:49:47;;;;;;;12.65;8.50;;;5.30;99.90;;;;;;5003323;28;20105;-60
2021/11/22 08:52:13;;;;;;;11.43;7.28;;;5.40;99.90;;;;;;4995899;28;20508;-58
2021/11/22 08:54:39;;;;;;;9.40;5.75;;;5.60;99.90;;;;;;5001209;28;20038;-56
2021/11/22 08:57:09;;;;;;;6.90;5.75;;;5.70;99.90;;;;;;5003499;28;20049;-59
2021/11/22 08:59:36;;;;;;;8.23;5.32;;;5.90;99.90;;;;;;4994116;28;20060;-57
2021/11/22 09:02:02;;;;;;;7.43;5.78;;;6.00;99.90;;;;;;4999798;28;20117;-54
2021/11/22 09:04:28;;;;;;;6.50;4.78;;;6.10;99.90;;;;;;4998368;28;20432;-57
2021/11/22 09:06:53;;;;;;;6.40;4.63;;;6.10;99.90;;;;;;5001546;28;20069;-57
2021/11/22 09:09:19;;;;;;;6.25;4.95;;;6.10;99.90;;;;;;4984954;28;20065;-59
2021/11/22 09:11:46;;;;;;;9.93;4.82;;;6.20;99.90;;;;;;4997560;28;20095;-56
2021/11/22 09:14:13;;;;;;;10.88;5.50;;;6.30;99.90;;;;;;4995100;28;20037;-58
2021/11/22 09:16:39;;;;;;;4.53;3.80;;;6.50;99.90;;;;;;4993845;28;20109;-57
2021/11/22 09:19:05;;;;;;;5.43;3.80;;;6.70;99.90;;;;;;4995804;28;20704;-57
2021/11/22 09:21:32;;;;;;;6.13;3.30;;;6.80;99.90;;;;;;5000043;28;20022;-58
2021/11/22 09:24:00;;;;;;;3.75;3.00;;;6.90;99.90;;;;;;5001034;28;20026;-60
2021/11/22 09:26:26;;;;;;;4.18;3.30;;;7.00;99.90;;;;;;5006837;28;20075;-58
2021/11/22 09:28:52;;;;;;;3.70;3.08;;;6.90;99.90;;;;;;4997663;28;20097;-54
2021/11/22 09:31:18;;;;;;;3.92;3.13;;;7.00;99.90;;;;;;5006745;28;20092;-59
2021/11/22 09:33:45;;;;;;;3.40;2.75;;;7.20;99.90;;;;;;5006174;28;20049;-58
2021/11/22 09:36:11;;;;;;;4.35;2.97;;;7.60;99.90;;;;;;4995468;28;20049;-57
2021/11/22 09:38:38;;;;;;;5.18;2.90;;;8.00;99.90;;;;;;5017664;28;20034;-60
2021/11/22 09:41:04;;;;;;;6.47;2.97;;;8.30;99.90;;;;;;5003922;28;20040;-50
2021/11/22 09:43:30;;;;;;;3.05;2.78;;;8.40;99.90;;;;;;5000459;28;20026;-56
2021/11/22 09:45:57;;;;;;;4.00;2.45;;;8.20;99.90;;;;;;5004264;28;20022;-56
2021/11/22 09:48:22;;;;;;;5.03;2.25;;;8.00;99.90;;;;;;4998909;28;20492;-56
2021/11/22 09:50:48;;;;;;;3.67;2.78;;;7.70;99.90;;;;;;5007305;28;20029;-59
2021/11/22 09:53:15;;;;;;;4.75;2.90;;;7.50;99.90;;;;;;5006956;28;20484;-55
2021/11/22 09:55:41;;;;;;;3.47;2.55;;;7.30;99.90;;;;;;5003535;28;20025;-58
2021/11/22 09:58:08;;;;;;;5.28;2.63;;;7.20;99.90;;;;;;5001780;28;20088;-59
2021/11/22 10:00:39;;;;;;;4.00;2.78;;;7.10;99.90;;;;;;5007890;28;20025;-61
2021/11/22 10:03:13;;;;;;;3.78;2.00;;;7.10;99.90;;;;;;5003923;28;20483;-57
2021/11/22 10:05:42;;;;;;;3.25;2.35;;;7.10;99.90;;;;;;4996816;28;20029;-58
2021/11/22 10:08:18;;;;;;;4.50;2.78;;;7.00;99.90;;;;;;4978444;28;20048;-59
2021/11/22 10:10:55;;;;;;;4.10;1.98;;;6.90;99.90;;;;;;5002737;28;20061;-59
2021/11/22 10:13:27;;;;;;;6.45;2.65;;;6.90;99.90;;;;;;5006494;28;20034;-60
2021/11/22 10:15:57;;;;;;;4.03;2.42;;;7.00;99.90;;;;;;5004873;28;20033;-59
2021/11/22 10:18:25;;;;;;;3.88;2.38;;;7.10;99.90;;;;;;5010298;28;20038;-59
2021/11/22 10:20:52;;;;;;;2.50;2.22;;;7.20;99.90;;;;;;5020653;28;20033;-58
2021/11/22 10:23:24;;;;;;;3.00;2.40;;;7.40;99.90;;;;;;5001916;28;20034;-57
2021/11/22 10:25:51;;;;;;;2.10;1.90;;;7.50;99.90;;;;;;4999240;28;20848;-57
2021/11/22 10:28:18;;;;;;;3.53;1.98;;;7.60;99.90;;;;;;4997625;28;20031;-59
2021/11/22 10:30:53;;;;;;;3.40;2.35;;;7.50;99.90;;;;;;5001033;28;20091;-60
2021/11/22 10:33:38;;;;;;;6.10;2.40;;;7.40;99.90;;;;;;5002677;28;20036;-60
2021/11/22 10:36:07;;;;;;;3.05;1.75;;;7.40;99.90;;;;;;4995089;28;20061;-58
2021/11/22 10:38:38;;;;;;;3.90;1.90;;;7.40;99.90;;;;;;5006095;28;20117;-60
2021/11/22 10:41:15;;;;;;;3.60;1.83;;;7.50;99.90;;;;;;5010763;28;20052;-57
2021/11/22 10:43:51;;;;;;;5.03;1.80;;;7.60;99.90;;;;;;5003156;28;20029;-60
2021/11/22 10:46:39;;;;;;;2.30;2.00;;;7.70;99.90;;;;;;5017246;28;20029;-58
2021/11/22 10:49:14;;;;;;;2.72;1.90;;;7.70;99.90;;;;;;5012566;28;20484;-58
2021/11/22 10:51:45;;;;;;;1.83;1.67;;;7.40;99.90;;;;;;4995328;28;20038;-58
2021/11/22 10:54:12;;;;;;;3.15;1.70;;;7.10;99.90;;;;;;4997865;28;20034;-60
2021/11/22 10:56:40;;;;;;;2.92;1.98;;;7.00;99.90;;;;;;4999761;28;20030;-55
2021/11/22 10:59:07;;;;;;;3.85;1.48;;;6.90;99.90;;;;;;5011079;28;20037;-58
2021/11/22 11:01:47;;;;;;;2.60;1.90;;;6.90;99.90;;;;;;5009890;28;20022;-58
2021/11/22 11:04:12;;;;;;;2.25;1.73;;;6.80;99.90;;;;;;5008029;28;20418;-60
2021/11/22 11:07:03;;;;;;;4.70;1.90;;;6.80;99.90;;;;;;5006814;28;20025;-56
2021/11/22 11:09:36;;;;;;;2.72;1.50;;;6.80;99.90;;;;;;4991650;28;20089;-56
2021/11/22 11:12:10;;;;;;;2.45;1.45;;;6.80;99.90;;;;;;5018109;28;20104;-60
2021/11/22 11:14:38;;;;;;;8.80;1.88;;;6.90;99.90;;;;;;5012527;28;20035;-58
2021/11/22 11:17:21;;;;;;;2.45;1.83;;;6.80;99.90;;;;;;5007535;28;20026;-56
2021/11/22 11:19:50;;;;;;;1.42;1.30;;;6.80;99.90;;;;;;5019478;28;20440;-57
2021/11/22 11:22:17;;;;;;;3.47;1.38;;;6.80;99.90;;;;;;5013222;28;20023;-58
2021/11/22 11:24:43;;;;;;;1.77;1.30;;;6.70;99.90;;;;;;5003399;28;20452;-58
2021/11/22 11:27:08;;;;;;;2.97;2.00;;;6.70;99.90;;;;;;5003748;28;20036;-54
2021/11/22 11:29:35;;;;;;;3.83;1.20;;;6.60;99.90;;;;;;5011947;28;20081;-57
2021/11/22 11:32:01;;;;;;;3.60;1.77;;;6.60;99.90;;;;;;5018082;28;20040;-56
2021/11/22 11:34:39;;;;;;;8.10;3.60;;;6.60;99.90;;;;;;4997649;28;20403;-58
2021/11/22 11:37:46;;;;;;;5.13;1.75;;;6.60;99.90;;;;;;5003772;28;20029;-58
2021/11/22 11:40:31;;;;;;;3.05;2.13;;;6.60;99.90;;;;;;5008375;28;20026;-58
2021/11/22 11:43:34;;;;;;;2.70;1.80;;;6.60;99.90;;;;;;5009112;28;20022;-58
2021/11/22 11:46:09;;;;;;;3.25;1.90;;;6.60;99.90;;;;;;4998005;28;20022;-60
2021/11/22 11:48:40;;;;;;;5.68;3.33;;;6.60;99.90;;;;;;5012734;28;20018;-57
2021/11/22 11:51:19;;;;;;;5.43;1.45;;;6.50;99.90;;;;;;5018684;28;20032;-59
2021/11/22 11:54:00;;;;;;;6.68;1.88;;;6.40;99.90;;;;;;5013574;28;20025;-57
2021/11/22 11:56:36;;;;;;;4.05;1.77;;;6.40;99.90;;;;;;5006132;28;20034;-56
2021/11/22 11:59:20;;;;;;;5.32;2.95;;;6.40;99.90;;;;;;5023940;28;20033;-59
2021/11/22 12:01:57;;;;;;;7.53;1.80;;;6.40;99.90;;;;;;5000537;28;20025;-57
2021/11/22 12:04:24;;;;;;;2.83;1.83;;;6.50;99.90;;;;;;4997410;28;20265;-58
2021/11/22 12:06:52;;;;;;;5.22;2.90;;;6.60;99.90;;;;;;5007444;28;20064;-58
2021/11/22 12:09:27;;;;;;;2.00;1.48;;;6.70;99.90;;;;;;4994089;28;20486;-59
2021/11/22 12:11:53;;;;;;;3.92;1.50;;;6.70;99.90;;;;;;5004657;28;20458;-59
2021/11/22 12:14:56;;;;;;;2.45;2.13;;;6.70;99.90;;;;;;4997748;28;20105;-60
2021/11/22 12:17:34;;;;;;;2.10;1.58;;;6.80;99.90;;;;;;5002546;28;20022;-58
2021/11/22 12:20:35;;;;;;;2.05;1.73;;;6.90;99.90;;;;;;5007003;28;20092;-59
2021/11/22 12:23:04;;;;;;;1.27;1.17;;;6.90;99.90;;;;;;5004911;28;20037;-58
2021/11/22 12:25:43;;;;;;;3.03;1.50;;;7.00;99.90;;;;;;5004271;28;20026;-60
2021/11/22 12:28:23;;;;;;;2.92;1.75;;;7.10;99.90;;;;;;5006575;28;20037;-58
2021/11/22 12:31:01;;;;;;;1.75;1.63;;;7.20;99.90;;;;;;5007909;28;20487;-59
2021/11/22 12:33:26;;;;;;;3.92;1.65;;;7.10;99.90;;;;;;5008702;28;20026;-58
2021/11/22 12:35:55;;;;;;;3.55;1.85;;;6.90;99.90;;;;;;5008725;28;20030;-57
2021/11/22 12:38:24;;;;;;;3.78;1.50;;;6.80;99.90;;;;;;5004426;28;20026;-59
2021/11/22 12:40:52;;;;;;;3.05;1.80;;;6.60;99.90;;;;;;4997586;28;20104;-58
2021/11/22 12:43:47;;;;;;;1.98;1.70;;;6.50;99.90;;;;;;5005326;28;20034;-57
2021/11/22 12:46:19;;;;;;;2.78;1.52;;;6.40;99.90;;;;;;5000079;28;20030;-60
2021/11/22 12:48:47;;;;;;;2.45;1.85;;;6.40;99.90;;;;;;4998604;28;20037;-58